Terminal Aerodrome Forecast
Issued by NWS

Home | Current Version | Previous Version | Text Only | Print | Product List | Glossary On
Versions: 1 2 3 4 5 6 7 8 9 10 11 12 13 14 15
127
FTAK31 PAJN 191142
TAFAWG
TAF
PAWG 191142Z 1912/2012 VRB04KT P6SM -SHRA SCT030 OVC045
     FM191600 11008KT 5SM -SHRA BR SCT015 OVC025
     FM200200 12010KT P6SM -SHRA FEW008 BKN025 OVC045
      AMD LTD TO CLD VIS AND WIND 1912/1915=

USA.gov is the U.S. government's official web portal to all federal, state and local government web resources and services.